Terminal Aerodrome Forecast
Issued by NWS Louisville, KY

Home | Current Version | Previous Version | Text Only | Print | Product List | Glossary On
Versions: 1 2 3 4 5 6 7 8 9 10 11 12
000
FTUS43 KLMK 150500
TAFBWG
TAF
KBWG 150529Z 1506/1606 00000KT P6SM SKC
     FM150800 00000KT 5SM BR SCT250
     FM151000 00000KT 2SM BR BKN250
     FM151400 24005KT P6SM FEW050 BKN150=

USA.gov is the U.S. government's official web portal to all federal, state and local government web resources and services.